Atwood, CO

2:36 PM MDT on August 21, 2014 (GMT -0600)
Sterling Municipal | Change Station
CLOSE
Current Station
Airport
Location: Sterling Muni, Sterling, CO,
Elevation: 4039 ft
Nearby Weather Stations

Elev 4039 ft 40.62 °N, 103.26 °W | Updated 26 minutes ago

Scattered Clouds
Scattered Clouds
90 °F
Feels Like 90 °F
N
6
Wind Variable Wind from WNW

Today
High -- | Low -- °F
--% Chance of Precip.
Yesterday
High -- | Low -- °F
Precip. -- in
6:09 AM 7:41 PM
Waning Crescent, 12% visible
Pressure 30.01 in
Visibility 10.0 miles
Clouds Scattered Clouds 11000 ft
Dew Point 52 °F
Humidity 27%
Rainfall 0.00 in
Snow Depth Not available.
UV 8 out of 12
Pollen 10.30 out of 12
Air Quality Not available.
Flu Activity Not available.
METAR KSTK 212010Z AUTO 30005KT 10SM SCT110 32/11 A3001 RMK AO2

More Conditions Fewer Conditions

Pressure 30.01 in
Visibility 10.0 miles
Clouds Scattered Clouds 11000 ft
Dew Point 52 °F
Humidity 27%
Rainfall 0.00 in
Snow Depth Not available.
UV 8 out of 12
Pollen 10.30 out of 12
Air Quality Not available.
Flu Activity Not available.
METAR KSTK 212010Z AUTO 30005KT 10SM SCT110 32/11 A3001 RMK AO2

More Conditions Fewer Conditions

10-Day Weather Forecast

Almanac

Astronomy

Aug. 21, 2014 Rise Set
Actual Time 6:09 AM MDT 7:41 PM MDT
Civil Twilight 5:40 AM MDT 8:10 PM MDT
Nautical Twilight 5:06 AM MDT 8:45 PM MDT
Astronomical Twilight 4:29 AM MDT 9:21 PM MDT
Moon 2:41 AM MDT 5:12 PM MDT
Length of Visible Light 14h 29m
Length of Day
13h 32m
Tomorrow will be 2m 28s shorter.
Waning Crescent, 12% of the Moon is Illuminated
Today
Waning Crescent
Aug 25
New
Sep 2
First Quarter
Sep 8
Full
Sep 15
Last Quarter

Today's Extremes

State Highs State Lows

Community

WunderPhotos

Upload Photos

1,746,018 photos uploaded!

WunderBlogs® & News

Nearby

Snow Depth

Station Depth Elevation
Wild Basin 0 in 9560 ft
Willow Park 6 in 10700 ft
Lake Irene 0 in 10700 ft
Rawah 9 in 9020 ft
Summit Ranch 0 in 9400 ft

Earthquake Activity

City Distance Mag. Time & Date
No recent earthquake activity has been reported nearby.
Minimum magnitude displayed is 2.5.

Coastal Water Temperatures

Place Temperature
No Stations Reporting

Nearby Weather Stations